createdAt,value
2022-12-08T00:01:32.556Z,3.09
2022-12-08T00:04:02.288Z,3.49
2022-12-08T00:06:53.354Z,3.69
2022-12-08T00:09:41.069Z,3.54
2022-12-08T00:12:16.666Z,3.23
2022-12-08T00:14:47.574Z,3.13
2022-12-08T00:17:16.525Z,3.04
2022-12-08T00:19:45.040Z,3.68
2022-12-08T00:22:14.728Z,3.54
2022-12-08T00:24:45.563Z,3.56
2022-12-08T00:27:15.747Z,3.57
2022-12-08T00:29:45.266Z,3.29
2022-12-08T00:32:13.767Z,3.11
2022-12-08T00:34:41.375Z,2.96
2022-12-08T00:37:08.953Z,2.97
2022-12-08T00:39:36.926Z,3.47
2022-12-08T00:42:13.510Z,2.98
2022-12-08T00:44:43.018Z,3.11
2022-12-08T00:47:11.473Z,2.98
2022-12-08T00:49:39.132Z,3.27
2022-12-08T00:52:07.177Z,3.29
2022-12-08T00:54:34.948Z,2.88
2022-12-08T00:57:02.799Z,3.38
2022-12-08T00:59:30.655Z,3.13
2022-12-08T01:01:58.347Z,3.23
2022-12-08T01:04:26.231Z,3.30
2022-12-08T01:06:54.011Z,3.12
2022-12-08T01:09:21.713Z,3.06
2022-12-08T01:11:49.272Z,2.83
2022-12-08T01:14:17.060Z,2.76
2022-12-08T01:16:45.024Z,3.18
2022-12-08T01:19:14.464Z,3.33
2022-12-08T01:21:43.375Z,3.39
2022-12-08T01:24:16.420Z,3.17
2022-12-08T01:26:45.290Z,3.15
2022-12-08T01:29:13.291Z,3.09
2022-12-08T01:31:40.968Z,2.70
2022-12-08T01:34:08.829Z,2.73
2022-12-08T01:36:37.303Z,2.63
2022-12-08T01:39:08.034Z,2.72
2022-12-08T01:41:38.010Z,2.68
2022-12-08T01:44:08.492Z,2.23
2022-12-08T01:46:38.644Z,2.64
2022-12-08T01:49:21.031Z,2.20
2022-12-08T01:52:18.424Z,2.54
2022-12-08T01:54:53.713Z,2.60
2022-12-08T01:57:30.869Z,2.36
2022-12-08T02:00:14.287Z,2.86
2022-12-08T02:02:47.310Z,2.69
2022-12-08T02:05:16.319Z,2.56
2022-12-08T02:07:44.879Z,2.42
2022-12-08T02:10:16.622Z,1.76
2022-12-08T02:12:44.917Z,1.55
2022-12-08T02:15:12.956Z,1.93
2022-12-08T02:18:00.075Z,1.98
2022-12-08T02:20:38.023Z,1.81
2022-12-08T02:23:05.569Z,2.38
2022-12-08T02:25:47.577Z,2.64
2022-12-08T02:28:47.401Z,2.68
2022-12-08T02:31:35.395Z,2.74
2022-12-08T02:34:09.130Z,2.72
2022-12-08T02:37:01.324Z,2.44
2022-12-08T02:39:35.975Z,2.48
2022-12-08T02:42:35.291Z,2.05
2022-12-08T02:45:11.661Z,2.07
2022-12-08T02:47:40.819Z,1.79
2022-12-08T02:50:09.856Z,2.01
2022-12-08T02:52:43.382Z,2.25
2022-12-08T02:55:19.100Z,2.22
2022-12-08T02:58:20.245Z,2.12
2022-12-08T03:01:06.272Z,2.20
2022-12-08T03:03:45.862Z,1.78
2022-12-08T03:06:44.101Z,1.58
2022-12-08T03:09:29.709Z,1.76
2022-12-08T03:12:18.436Z,1.87
2022-12-08T03:14:50.233Z,1.65
2022-12-08T03:17:21.770Z,1.89
2022-12-08T03:19:50.107Z,1.97
2022-12-08T03:22:22.700Z,1.89
2022-12-08T03:24:51.344Z,1.90
2022-12-08T03:27:29.569Z,1.85
2022-12-08T03:29:59.145Z,1.87
2022-12-08T03:32:40.190Z,1.37
2022-12-08T03:35:15.921Z,1.20
2022-12-08T03:37:44.330Z,1.55
2022-12-08T03:40:15.585Z,1.58
2022-12-08T03:42:43.214Z,1.75
2022-12-08T03:45:11.752Z,1.56
2022-12-08T03:47:39.350Z,1.63
2022-12-08T03:50:07.592Z,1.60
2022-12-08T03:52:35.795Z,1.83
2022-12-08T03:55:03.660Z,1.79
2022-12-08T03:57:31.280Z,2.05
2022-12-08T03:59:59.198Z,2.17
2022-12-08T04:02:26.759Z,2.12
2022-12-08T04:04:54.602Z,2.21
2022-12-08T04:07:22.176Z,2.23
2022-12-08T04:09:49.803Z,2.32
2022-12-08T04:12:17.705Z,2.05
2022-12-08T04:14:45.249Z,1.19
2022-12-08T04:17:12.892Z,1.59
2022-12-08T04:19:41.044Z,1.62
2022-12-08T04:22:08.875Z,1.81
2022-12-08T04:24:36.375Z,2.02
2022-12-08T04:27:04.257Z,1.80
2022-12-08T04:29:31.766Z,1.38
2022-12-08T04:31:59.375Z,1.77
2022-12-08T04:34:27.250Z,2.01
2022-12-08T04:36:54.781Z,2.22
2022-12-08T04:39:22.417Z,2.13
2022-12-08T04:41:50.372Z,1.69
2022-12-08T04:44:17.894Z,1.66
2022-12-08T04:46:45.441Z,2.06
2022-12-08T04:49:13.315Z,1.78
2022-12-08T04:51:40.977Z,1.22
2022-12-08T04:54:08.593Z,1.95
2022-12-08T04:56:36.753Z,1.68
2022-12-08T04:59:04.466Z,1.59
2022-12-08T05:01:32.244Z,1.24
2022-12-08T05:04:00.252Z,1.42
2022-12-08T05:06:27.793Z,1.49
2022-12-08T05:08:56.279Z,1.36
2022-12-08T05:11:24.132Z,1.57
2022-12-08T05:13:51.826Z,1.65
2022-12-08T05:16:19.357Z,1.47
2022-12-08T05:18:47.364Z,2.11
2022-12-08T05:21:14.891Z,2.20
2022-12-08T05:23:42.359Z,2.23
2022-12-08T05:26:10.205Z,2.29
2022-12-08T05:28:42.270Z,2.18
2022-12-08T05:31:15.908Z,1.98
2022-12-08T05:33:44.557Z,1.69
2022-12-08T05:36:14.524Z,1.43
2022-12-08T05:38:42.967Z,1.79
2022-12-08T05:41:14.597Z,2.05
2022-12-08T05:43:42.665Z,2.12
2022-12-08T05:46:11.166Z,2.11
2022-12-08T05:48:39.375Z,2.06
2022-12-08T05:51:17.106Z,1.82
2022-12-08T05:53:44.725Z,1.88
2022-12-08T05:56:12.587Z,1.76
2022-12-08T05:58:40.337Z,1.69
2022-12-08T06:01:08.192Z,1.71
2022-12-08T06:03:36.269Z,1.66
2022-12-08T06:06:04.323Z,1.41
2022-12-08T06:08:31.914Z,1.54
2022-12-08T06:10:59.912Z,1.30
2022-12-08T06:13:27.410Z,1.60
2022-12-08T06:15:55.036Z,1.49
2022-12-08T06:18:22.902Z,1.06
2022-12-08T06:20:50.520Z,1.60
2022-12-08T06:23:18.078Z,1.72
2022-12-08T06:25:45.914Z,1.77
2022-12-08T06:28:13.485Z,1.63
2022-12-08T06:30:41.010Z,1.68
2022-12-08T06:33:08.881Z,1.67
2022-12-08T06:35:37.144Z,1.88
2022-12-08T06:38:04.760Z,1.88
2022-12-08T06:40:32.657Z,1.77
2022-12-08T06:43:00.210Z,1.87
2022-12-08T06:45:27.777Z,1.89
2022-12-08T06:47:55.649Z,1.92
2022-12-08T06:50:23.211Z,1.89
2022-12-08T06:53:02.821Z,1.96
2022-12-08T06:58:21.146Z,1.81
2022-12-08T07:00:49.427Z,1.92
2022-12-08T07:03:17.058Z,2.14
2022-12-08T07:05:44.841Z,2.07
2022-12-08T07:08:12.877Z,2.03
2022-12-08T07:10:40.650Z,2.01
2022-12-08T07:13:08.307Z,2.00
2022-12-08T07:15:36.154Z,1.85
2022-12-08T07:18:03.991Z,1.93
2022-12-08T07:20:32.092Z,1.82
2022-12-08T07:23:00.118Z,2.02
2022-12-08T07:25:27.738Z,2.00
2022-12-08T07:27:55.399Z,2.01
2022-12-08T07:30:23.464Z,2.02
2022-12-08T07:32:50.986Z,2.09
2022-12-08T07:35:18.565Z,2.17
2022-12-08T07:37:46.675Z,2.21
2022-12-08T07:40:15.071Z,2.20
2022-12-08T07:42:42.872Z,2.23
2022-12-08T07:45:10.820Z,2.22
2022-12-08T07:47:38.421Z,2.30
2022-12-08T07:50:07.109Z,2.33
2022-12-08T07:52:35.822Z,2.37
2022-12-08T07:55:03.602Z,2.54
2022-12-08T07:57:31.208Z,2.40
2022-12-08T07:59:59.143Z,2.26
2022-12-08T08:02:26.924Z,2.33
2022-12-08T08:04:54.908Z,2.47
2022-12-08T08:07:22.452Z,2.30
2022-12-08T08:09:50.097Z,2.38
2022-12-08T08:12:33.637Z,2.59
2022-12-08T08:15:01.841Z,2.51
2022-12-08T08:17:30.411Z,2.74
2022-12-08T08:19:58.156Z,2.62
2022-12-08T08:22:26.351Z,2.70
2022-12-08T08:24:54.638Z,2.71
2022-12-08T08:27:22.834Z,2.79
2022-12-08T08:29:50.728Z,2.86
2022-12-08T08:32:19.590Z,2.93
2022-12-08T08:34:47.195Z,3.06
2022-12-08T08:37:14.967Z,3.01
2022-12-08T08:39:43.178Z,3.02
2022-12-08T08:42:10.787Z,3.06
2022-12-08T08:44:39.066Z,3.15
2022-12-08T08:47:07.291Z,3.07
2022-12-08T08:49:35.270Z,3.13
2022-12-08T08:52:04.934Z,3.16
2022-12-08T08:54:33.505Z,3.24
2022-12-08T08:57:02.134Z,3.22
2022-12-08T08:59:29.922Z,3.28
2022-12-08T09:01:57.874Z,3.21
2022-12-08T09:04:26.047Z,3.35
2022-12-08T09:06:53.830Z,3.32
2022-12-08T09:09:21.837Z,3.35
2022-12-08T09:11:49.447Z,3.38
2022-12-08T09:14:17.148Z,3.50
2022-12-08T09:16:45.093Z,3.39
2022-12-08T09:19:12.860Z,3.43
2022-12-08T09:21:40.797Z,3.50
2022-12-08T09:24:15.554Z,3.66
2022-12-08T09:26:44.436Z,3.77
2022-12-08T09:29:14.653Z,3.89
2022-12-08T09:31:42.599Z,3.85
2022-12-08T09:34:12.326Z,3.76
2022-12-08T09:36:40.633Z,3.77
2022-12-08T09:39:08.814Z,3.70
2022-12-08T09:41:48.184Z,3.82
2022-12-08T09:44:34.720Z,3.87
2022-12-08T09:47:05.485Z,3.91
2022-12-08T09:49:58.151Z,3.97
2022-12-08T09:52:31.463Z,4.08
2022-12-08T09:55:04.522Z,3.97
2022-12-08T09:57:32.152Z,3.90
2022-12-08T10:00:04.493Z,3.84
2022-12-08T10:02:32.932Z,3.94
2022-12-08T10:05:01.039Z,4.01
2022-12-08T10:08:08.391Z,3.94
2022-12-08T10:10:57.974Z,3.94
2022-12-08T10:13:36.762Z,4.01
2022-12-08T10:16:39.489Z,4.19
2022-12-08T10:19:21.401Z,4.18
2022-12-08T10:21:50.643Z,4.27
2022-12-08T10:24:41.219Z,4.27
2022-12-08T10:27:12.595Z,4.39
2022-12-08T10:29:41.210Z,4.53
2022-12-08T10:32:17.575Z,4.64
2022-12-08T10:35:08.886Z,4.59
2022-12-08T10:37:37.008Z,4.77
2022-12-08T10:40:10.591Z,4.73
2022-12-08T10:42:41.959Z,4.94
2022-12-08T10:45:17.694Z,5.04
2022-12-08T10:48:06.556Z,5.01
2022-12-08T10:50:35.685Z,5.13
2022-12-08T10:53:09.501Z,5.01
2022-12-08T10:56:09.406Z,5.16
2022-12-08T10:58:42.680Z,5.02
2022-12-08T11:01:18.378Z,4.99
2022-12-08T11:03:46.368Z,5.13
2022-12-08T11:06:20.271Z,5.24
2022-12-08T11:09:23.142Z,5.05
2022-12-08T11:12:06.688Z,5.04
2022-12-08T11:14:43.573Z,5.15
2022-12-08T11:17:33.367Z,5.37
2022-12-08T11:20:10.454Z,5.55
2022-12-08T11:22:43.477Z,5.52
2022-12-08T11:25:24.838Z,5.62
2022-12-08T11:27:56.433Z,5.79
2022-12-08T11:30:38.958Z,5.70
2022-12-08T11:33:22.409Z,5.65
2022-12-08T11:35:55.629Z,5.66
2022-12-08T11:38:25.184Z,5.72
2022-12-08T11:41:08.385Z,5.67
2022-12-08T11:43:46.798Z,5.65
2022-12-08T11:46:26.393Z,5.55
2022-12-08T11:49:06.710Z,5.53
2022-12-08T11:51:39.774Z,5.40
2022-12-08T11:54:26.244Z,5.51
2022-12-08T11:57:03.103Z,5.45
2022-12-08T11:59:41.901Z,5.54
2022-12-08T12:02:19.727Z,5.48
2022-12-08T12:04:50.799Z,5.38
2022-12-08T12:07:39.450Z,5.33
2022-12-08T12:10:21.082Z,5.41
2022-12-08T12:13:07.181Z,5.48
2022-12-08T12:15:47.191Z,5.62
2022-12-08T12:18:27.241Z,5.52
2022-12-08T12:21:10.471Z,5.46
2022-12-08T12:23:54.462Z,5.62
2022-12-08T12:26:25.937Z,5.53
2022-12-08T12:29:00.282Z,5.44
2022-12-08T12:31:41.639Z,5.32
2022-12-08T12:34:21.138Z,5.28
2022-12-08T12:37:10.276Z,5.22
2022-12-08T12:39:53.379Z,5.17
2022-12-08T12:42:36.665Z,5.02
2022-12-08T12:45:22.098Z,4.97
2022-12-08T12:47:56.337Z,5.06
2022-12-08T12:50:33.896Z,4.93
2022-12-08T12:53:20.796Z,4.83
2022-12-08T12:55:55.542Z,4.78
2022-12-08T12:58:32.326Z,4.83
2022-12-08T13:01:15.088Z,4.93
2022-12-08T13:03:51.757Z,5.07
2022-12-08T13:06:32.425Z,5.19
2022-12-08T13:09:00.614Z,5.26
2022-12-08T13:11:28.353Z,5.27
2022-12-08T13:13:56.934Z,5.34
2022-12-08T13:16:27.815Z,5.12
2022-12-08T13:19:03.551Z,5.23
2022-12-08T13:21:36.970Z,5.23
2022-12-08T13:24:10.659Z,5.24
2022-12-08T13:27:02.131Z,5.28
2022-12-08T13:29:30.685Z,5.38
2022-12-08T13:32:01.463Z,5.37
2022-12-08T13:34:38.061Z,5.29
2022-12-08T13:37:18.833Z,5.34
2022-12-08T13:39:58.434Z,5.55
2022-12-08T13:42:44.969Z,5.60
2022-12-08T13:45:33.560Z,5.59
2022-12-08T13:48:23.384Z,5.64
2022-12-08T13:57:26.816Z,5.27
2022-12-08T13:59:59.779Z,5.61
2022-12-08T14:02:35.176Z,5.50
2022-12-08T14:05:23.475Z,5.46
2022-12-08T14:07:55.423Z,5.83
2022-12-08T14:10:29.221Z,5.93
2022-12-08T14:13:03.553Z,5.94
2022-12-08T14:15:38.094Z,6.03
2022-12-08T14:18:21.612Z,6.12
2022-12-08T14:21:21.087Z,6.09
2022-12-08T14:23:48.951Z,6.03
2022-12-08T14:26:18.005Z,5.93
2022-12-08T14:28:45.612Z,5.97
2022-12-08T14:31:14.573Z,5.86
2022-12-08T14:33:43.065Z,5.55
2022-12-08T14:36:20.983Z,5.63
2022-12-08T14:38:52.635Z,5.64
2022-12-08T14:41:25.250Z,5.54
2022-12-08T14:44:01.404Z,5.46
2022-12-08T14:46:29.325Z,5.39
2022-12-08T14:48:58.318Z,5.38
2022-12-08T14:51:31.081Z,5.23
2022-12-08T14:54:02.743Z,5.10
2022-12-08T14:56:36.368Z,5.06
2022-12-08T14:59:06.805Z,5.17
2022-12-08T15:01:35.010Z,5.10
2022-12-08T15:04:18.227Z,5.17
2022-12-08T15:07:05.781Z,5.14
2022-12-08T15:09:43.253Z,4.96
2022-12-08T15:12:14.074Z,5.05
2022-12-08T15:15:14.568Z,5.06
2022-12-08T15:17:44.237Z,5.05
2022-12-08T15:20:35.616Z,5.04
2022-12-08T15:23:04.635Z,5.10
2022-12-08T15:25:32.472Z,5.05
2022-12-08T15:28:02.625Z,4.69
2022-12-08T15:30:31.260Z,4.86
2022-12-08T15:32:59.012Z,4.74
2022-12-08T15:35:26.543Z,4.83
2022-12-08T15:37:54.483Z,4.95
2022-12-08T15:40:27.234Z,4.76
2022-12-08T15:42:55.179Z,4.71
2022-12-08T15:45:31.429Z,4.66
2022-12-08T15:47:59.321Z,4.56
2022-12-08T15:50:27.328Z,4.62
2022-12-08T15:52:54.937Z,4.55
2022-12-08T15:55:28.274Z,4.48
2022-12-08T16:00:53.862Z,4.47
2022-12-08T16:04:13.082Z,4.47
2022-12-08T16:07:12.511Z,4.47
2022-12-08T16:09:31.894Z,4.51
2022-12-08T16:12:21.106Z,4.57
2022-12-08T16:17:37.002Z,4.08
2022-12-08T16:20:15.398Z,4.13
2022-12-08T16:23:13.471Z,4.04
2022-12-08T16:25:52.830Z,4.06
2022-12-08T16:28:52.301Z,3.96
2022-12-08T16:31:13.006Z,4.01
2022-12-08T16:33:42.055Z,3.78
2022-12-08T16:36:10.626Z,3.87
2022-12-08T16:38:38.333Z,3.91
2022-12-08T16:41:31.349Z,3.62
2022-12-08T16:44:03.046Z,3.74
2022-12-08T16:46:31.455Z,3.77
2022-12-08T16:48:59.397Z,3.78
2022-12-08T16:51:27.727Z,3.87
2022-12-08T16:53:57.102Z,3.81
2022-12-08T16:56:30.597Z,3.80
2022-12-08T16:59:02.060Z,3.84
2022-12-08T17:01:31.585Z,3.69
2022-12-08T17:04:31.026Z,3.72
2022-12-08T17:06:47.525Z,3.75
2022-12-08T17:09:15.273Z,3.89
2022-12-08T17:11:43.837Z,3.78
2022-12-08T17:14:13.030Z,3.93
2022-12-08T17:16:41.712Z,3.79
2022-12-08T17:19:13.264Z,3.83
2022-12-08T17:21:41.903Z,3.85
2022-12-08T17:24:09.494Z,3.92
2022-12-08T17:26:39.980Z,4.01
2022-12-08T17:29:07.819Z,4.11
2022-12-08T17:31:35.460Z,4.06
2022-12-08T17:34:05.815Z,4.06
2022-12-08T17:36:33.910Z,4.08
2022-12-08T17:39:02.402Z,4.01
2022-12-08T17:41:30.380Z,4.17
2022-12-08T17:43:58.250Z,3.96
2022-12-08T17:46:26.163Z,3.94
2022-12-08T17:48:54.148Z,3.99
2022-12-08T17:51:22.194Z,4.07
2022-12-08T17:53:49.986Z,4.02
2022-12-08T17:56:21.623Z,4.10
2022-12-08T17:58:54.403Z,4.05
2022-12-08T18:01:24.070Z,4.07
2022-12-08T18:03:52.205Z,4.09
2022-12-08T18:06:20.578Z,4.05
2022-12-08T18:08:48.440Z,4.16
2022-12-08T18:11:19.174Z,4.19
2022-12-08T18:13:48.380Z,4.13
2022-12-08T18:16:19.213Z,4.15
2022-12-08T18:18:47.700Z,4.28
2022-12-08T18:21:23.018Z,4.20
2022-12-08T18:23:51.856Z,4.42
2022-12-08T18:26:20.715Z,4.24
2022-12-08T18:28:48.476Z,4.31
2022-12-08T18:31:19.610Z,4.43
2022-12-08T18:33:48.456Z,4.29
2022-12-08T18:36:20.234Z,4.38
2022-12-08T18:38:48.176Z,4.21
2022-12-08T18:41:20.042Z,4.37
2022-12-08T18:43:48.077Z,4.39
2022-12-08T18:46:17.371Z,4.34
2022-12-08T18:48:48.931Z,4.37
2022-12-08T18:51:19.051Z,4.56
2022-12-08T18:53:47.612Z,4.67
2022-12-08T18:56:35.224Z,4.65
2022-12-08T18:59:06.583Z,4.79
2022-12-08T19:01:36.323Z,4.66
2022-12-08T19:06:56.408Z,4.89
2022-12-08T19:09:26.973Z,4.87
2022-12-08T19:11:55.497Z,4.97
2022-12-08T19:14:28.147Z,4.93
2022-12-08T19:16:57.824Z,4.82
2022-12-08T19:19:27.475Z,4.78
2022-12-08T19:21:56.002Z,4.31
2022-12-08T19:24:25.015Z,4.73
2022-12-08T19:26:53.336Z,4.89
2022-12-08T19:29:21.262Z,4.75
2022-12-08T19:31:49.628Z,4.25
2022-12-08T19:34:17.897Z,4.61
2022-12-08T19:36:45.948Z,4.81
2022-12-08T19:39:37.994Z,4.80
2022-12-08T19:42:32.348Z,4.15
2022-12-08T19:45:14.613Z,4.46
2022-12-08T19:47:43.004Z,4.67
2022-12-08T19:50:32.545Z,4.84
2022-12-08T19:53:01.135Z,4.96
2022-12-08T19:55:29.496Z,4.83
2022-12-08T19:57:57.361Z,4.63
2022-12-08T20:00:25.692Z,4.68
2022-12-08T20:02:54.576Z,4.67
2022-12-08T20:05:22.531Z,4.97
2022-12-08T20:07:50.852Z,5.07
2022-12-08T20:10:22.151Z,5.19
2022-12-08T20:12:50.031Z,5.00
2022-12-08T20:15:17.831Z,4.99
2022-12-08T20:17:46.539Z,5.10
2022-12-08T20:20:15.070Z,5.09
2022-12-08T20:22:42.988Z,5.10
2022-12-08T20:25:13.059Z,5.09
2022-12-08T20:27:41.627Z,5.36
2022-12-08T20:30:16.449Z,5.27
2022-12-08T20:32:45.701Z,5.34
2022-12-08T20:35:14.959Z,5.39
2022-12-08T20:37:43.078Z,5.35
2022-12-08T20:40:11.618Z,5.36
2022-12-08T20:42:39.437Z,5.31
2022-12-08T20:45:09.196Z,5.27
2022-12-08T20:47:37.820Z,5.40
2022-12-08T20:50:07.131Z,5.34
2022-12-08T20:52:35.177Z,5.40
2022-12-08T20:55:04.504Z,5.38
2022-12-08T20:57:33.503Z,5.46
2022-12-08T21:00:02.527Z,4.94
2022-12-08T21:02:30.743Z,5.41
2022-12-08T21:04:58.431Z,5.46
2022-12-08T21:07:26.067Z,5.38
2022-12-08T21:09:54.777Z,5.53
2022-12-08T21:12:22.486Z,5.54
2022-12-08T21:14:50.253Z,5.61
2022-12-08T21:17:18.289Z,5.53
2022-12-08T21:19:46.187Z,5.07
2022-12-08T21:22:14.644Z,5.55
2022-12-08T21:24:42.654Z,5.53
2022-12-08T21:27:10.460Z,5.35
2022-12-08T21:29:39.004Z,5.60
2022-12-08T21:32:07.102Z,5.55
2022-12-08T21:34:35.521Z,5.49
2022-12-08T21:37:03.140Z,5.39
2022-12-08T21:39:31.132Z,5.12
2022-12-08T21:42:27.938Z,5.22
2022-12-08T21:45:00.293Z,5.25
2022-12-08T21:47:28.074Z,5.62
2022-12-08T21:49:55.808Z,5.55
2022-12-08T21:52:23.636Z,5.87
2022-12-08T21:54:51.464Z,6.08
2022-12-08T21:57:19.315Z,6.19
2022-12-08T21:59:47.483Z,6.26
2022-12-08T22:02:20.780Z,5.95
2022-12-08T22:04:50.667Z,5.90
2022-12-08T22:07:19.638Z,5.76
2022-12-08T22:09:47.515Z,5.79
2022-12-08T22:12:16.831Z,6.19
2022-12-08T22:14:44.530Z,6.26
2022-12-08T22:17:12.376Z,6.02
2022-12-08T22:19:40.540Z,6.18
2022-12-08T22:22:08.326Z,6.08
2022-12-08T22:24:35.945Z,6.16
2022-12-08T22:27:04.053Z,6.07
2022-12-08T22:29:31.949Z,5.46
2022-12-08T22:31:59.501Z,5.94
2022-12-08T22:34:27.560Z,5.67
2022-12-08T22:36:55.301Z,5.78
2022-12-08T22:39:22.928Z,5.70
2022-12-08T22:41:50.991Z,5.60
2022-12-08T22:44:23.711Z,5.83
2022-12-08T22:46:51.789Z,5.97
2022-12-08T22:49:19.475Z,5.97
2022-12-08T22:51:46.959Z,5.65
2022-12-08T22:54:14.757Z,5.89
2022-12-08T22:56:42.343Z,5.65
2022-12-08T22:59:10.233Z,5.89
2022-12-08T23:01:38.055Z,6.27
2022-12-08T23:04:06.012Z,5.60
2022-12-08T23:06:33.890Z,5.56
2022-12-08T23:09:02.630Z,5.74
2022-12-08T23:11:31.286Z,5.37
2022-12-08T23:14:00.354Z,4.71
2022-12-08T23:16:29.142Z,5.28
2022-12-08T23:18:57.012Z,5.31
2022-12-08T23:21:24.545Z,5.23
2022-12-08T23:23:52.490Z,4.95
2022-12-08T23:26:25.210Z,4.88
2022-12-08T23:28:54.058Z,5.28
2022-12-08T23:31:22.468Z,5.40
2022-12-08T23:33:50.814Z,5.33
2022-12-08T23:36:20.447Z,5.31
2022-12-08T23:38:48.970Z,5.35
2022-12-08T23:41:17.238Z,5.20
2022-12-08T23:43:47.002Z,5.02
2022-12-08T23:46:16.958Z,5.04
2022-12-08T23:48:46.012Z,5.14
2022-12-08T23:51:14.053Z,4.69
2022-12-08T23:53:42.074Z,4.96
2022-12-08T23:56:12.701Z,5.37
2022-12-08T23:58:41.757Z,5.19
